sensor_id;sensor_type;location;lat;lon;timestamp;P1;durP1;ratioP1;P2;durP2;ratioP2
47531;SDS011;33273;52.254;7.988;2023-05-10T00:01:25;7.37;;;5.70;;
47531;SDS011;33273;52.254;7.988;2023-05-10T00:03:51;8.35;;;5.60;;
47531;SDS011;33273;52.254;7.988;2023-05-10T00:06:17;8.73;;;6.15;;
47531;SDS011;33273;52.254;7.988;2023-05-10T00:08:43;7.80;;;5.67;;
47531;SDS011;33273;52.254;7.988;2023-05-10T00:11:09;7.60;;;6.00;;
47531;SDS011;33273;52.254;7.988;2023-05-10T00:13:35;9.03;;;5.70;;
47531;SDS011;33273;52.254;7.988;2023-05-10T00:16:01;8.03;;;5.43;;
47531;SDS011;33273;52.254;7.988;2023-05-10T00:18:27;7.73;;;5.43;;
47531;SDS011;33273;52.254;7.988;2023-05-10T00:20:52;9.88;;;5.78;;
47531;SDS011;33273;52.254;7.988;2023-05-10T00:23:18;7.23;;;5.70;;
47531;SDS011;33273;52.254;7.988;2023-05-10T00:25:44;9.23;;;6.80;;
47531;SDS011;33273;52.254;7.988;2023-05-10T00:28:10;8.82;;;5.80;;
47531;SDS011;33273;52.254;7.988;2023-05-10T00:30:36;8.40;;;6.47;;
47531;SDS011;33273;52.254;7.988;2023-05-10T00:33:02;7.60;;;5.88;;
47531;SDS011;33273;52.254;7.988;2023-05-10T00:35:28;8.50;;;6.60;;
47531;SDS011;33273;52.254;7.988;2023-05-10T00:37:55;10.63;;;6.55;;
47531;SDS011;33273;52.254;7.988;2023-05-10T00:40:21;9.30;;;6.75;;
47531;SDS011;33273;52.254;7.988;2023-05-10T00:42:52;8.70;;;6.15;;
47531;SDS011;33273;52.254;7.988;2023-05-10T00:45:18;8.95;;;6.53;;
47531;SDS011;33273;52.254;7.988;2023-05-10T00:47:45;7.03;;;5.75;;
47531;SDS011;33273;52.254;7.988;2023-05-10T00:50:11;8.35;;;5.82;;
47531;SDS011;33273;52.254;7.988;2023-05-10T00:52:37;8.23;;;5.33;;
47531;SDS011;33273;52.254;7.988;2023-05-10T00:55:04;8.80;;;5.88;;
47531;SDS011;33273;52.254;7.988;2023-05-10T00:57:31;7.78;;;5.57;;
47531;SDS011;33273;52.254;7.988;2023-05-10T00:59:58;8.00;;;5.45;;
47531;SDS011;33273;52.254;7.988;2023-05-10T01:04:50;8.30;;;5.38;;
47531;SDS011;33273;52.254;7.988;2023-05-10T01:07:17;7.95;;;6.22;;
47531;SDS011;33273;52.254;7.988;2023-05-10T01:09:42;8.70;;;6.20;;
47531;SDS011;33273;52.254;7.988;2023-05-10T01:12:10;8.25;;;6.35;;
47531;SDS011;33273;52.254;7.988;2023-05-10T01:14:36;8.32;;;6.30;;
47531;SDS011;33273;52.254;7.988;2023-05-10T01:17:03;8.10;;;6.63;;
47531;SDS011;33273;52.254;7.988;2023-05-10T01:19:30;8.23;;;6.57;;
47531;SDS011;33273;52.254;7.988;2023-05-10T01:24:53;10.07;;;7.13;;
47531;SDS011;33273;52.254;7.988;2023-05-10T01:33:18;8.45;;;6.53;;
47531;SDS011;33273;52.254;7.988;2023-05-10T01:36:00;8.27;;;6.57;;
47531;SDS011;33273;52.254;7.988;2023-05-10T01:44:24;9.07;;;7.07;;
47531;SDS011;33273;52.254;7.988;2023-05-10T01:47:05;10.18;;;6.93;;
47531;SDS011;33273;52.254;7.988;2023-05-10T01:49:41;8.73;;;6.20;;
47531;SDS011;33273;52.254;7.988;2023-05-10T01:52:15;8.65;;;6.00;;
47531;SDS011;33273;52.254;7.988;2023-05-10T01:54:49;8.50;;;6.18;;
47531;SDS011;33273;52.254;7.988;2023-05-10T01:57:27;7.00;;;5.03;;
47531;SDS011;33273;52.254;7.988;2023-05-10T01:59:59;5.97;;;4.40;;
47531;SDS011;33273;52.254;7.988;2023-05-10T02:02:40;4.97;;;3.45;;
47531;SDS011;33273;52.254;7.988;2023-05-10T02:05:10;6.05;;;4.10;;
47531;SDS011;33273;52.254;7.988;2023-05-10T02:07:38;6.82;;;3.80;;
47531;SDS011;33273;52.254;7.988;2023-05-10T02:10:07;6.13;;;4.05;;
47531;SDS011;33273;52.254;7.988;2023-05-10T02:12:36;4.55;;;3.20;;
47531;SDS011;33273;52.254;7.988;2023-05-10T02:15:05;6.40;;;3.38;;
47531;SDS011;33273;52.254;7.988;2023-05-10T02:17:33;4.63;;;2.92;;
47531;SDS011;33273;52.254;7.988;2023-05-10T02:20:01;4.72;;;2.60;;
47531;SDS011;33273;52.254;7.988;2023-05-10T02:22:29;4.38;;;2.40;;
47531;SDS011;33273;52.254;7.988;2023-05-10T02:24:57;4.13;;;2.50;;
47531;SDS011;33273;52.254;7.988;2023-05-10T02:27:25;4.03;;;2.47;;
47531;SDS011;33273;52.254;7.988;2023-05-10T02:29:53;3.35;;;2.08;;
47531;SDS011;33273;52.254;7.988;2023-05-10T02:32:21;4.40;;;2.40;;
47531;SDS011;33273;52.254;7.988;2023-05-10T02:34:51;3.80;;;2.30;;
47531;SDS011;33273;52.254;7.988;2023-05-10T02:37:19;3.70;;;2.33;;
47531;SDS011;33273;52.254;7.988;2023-05-10T02:39:49;3.25;;;2.10;;
47531;SDS011;33273;52.254;7.988;2023-05-10T02:42:17;2.88;;;1.88;;
47531;SDS011;33273;52.254;7.988;2023-05-10T02:44:48;3.30;;;1.90;;
47531;SDS011;33273;52.254;7.988;2023-05-10T02:47:18;2.58;;;1.60;;
47531;SDS011;33273;52.254;7.988;2023-05-10T02:49:47;3.28;;;1.88;;
47531;SDS011;33273;52.254;7.988;2023-05-10T02:52:14;2.42;;;1.30;;
47531;SDS011;33273;52.254;7.988;2023-05-10T02:54:48;3.47;;;1.48;;
47531;SDS011;33273;52.254;7.988;2023-05-10T02:57:17;2.22;;;1.20;;
47531;SDS011;33273;52.254;7.988;2023-05-10T02:59:50;2.92;;;1.30;;
47531;SDS011;33273;52.254;7.988;2023-05-10T03:02:16;2.67;;;1.60;;
47531;SDS011;33273;52.254;7.988;2023-05-10T03:04:43;2.78;;;1.50;;
47531;SDS011;33273;52.254;7.988;2023-05-10T03:07:09;1.58;;;1.38;;
47531;SDS011;33273;52.254;7.988;2023-05-10T03:09:35;3.40;;;1.98;;
47531;SDS011;33273;52.254;7.988;2023-05-10T03:12:15;5.30;;;1.90;;
47531;SDS011;33273;52.254;7.988;2023-05-10T03:17:41;3.88;;;2.60;;
47531;SDS011;33273;52.254;7.988;2023-05-10T03:20:21;5.75;;;2.33;;
47531;SDS011;33273;52.254;7.988;2023-05-10T03:23:02;5.28;;;2.30;;
47531;SDS011;33273;52.254;7.988;2023-05-10T03:25:50;4.57;;;2.65;;
47531;SDS011;33273;52.254;7.988;2023-05-10T03:28:18;5.32;;;2.80;;
47531;SDS011;33273;52.254;7.988;2023-05-10T03:30:46;5.05;;;3.30;;
47531;SDS011;33273;52.254;7.988;2023-05-10T03:33:12;5.35;;;3.15;;
47531;SDS011;33273;52.254;7.988;2023-05-10T03:35:42;4.55;;;2.78;;
47531;SDS011;33273;52.254;7.988;2023-05-10T03:38:09;4.22;;;3.08;;
47531;SDS011;33273;52.254;7.988;2023-05-10T03:40:35;5.43;;;3.50;;
47531;SDS011;33273;52.254;7.988;2023-05-10T03:43:01;5.45;;;3.53;;
47531;SDS011;33273;52.254;7.988;2023-05-10T03:45:28;5.70;;;3.72;;
47531;SDS011;33273;52.254;7.988;2023-05-10T03:47:54;5.10;;;3.13;;
47531;SDS011;33273;52.254;7.988;2023-05-10T03:50:27;5.20;;;3.20;;
47531;SDS011;33273;52.254;7.988;2023-05-10T03:52:53;5.20;;;3.25;;
47531;SDS011;33273;52.254;7.988;2023-05-10T03:55:18;7.20;;;3.80;;
47531;SDS011;33273;52.254;7.988;2023-05-10T03:57:45;5.50;;;3.67;;
47531;SDS011;33273;52.254;7.988;2023-05-10T04:00:11;4.53;;;3.50;;
47531;SDS011;33273;52.254;7.988;2023-05-10T04:02:39;5.93;;;3.97;;
47531;SDS011;33273;52.254;7.988;2023-05-10T04:05:08;5.60;;;4.03;;
47531;SDS011;33273;52.254;7.988;2023-05-10T04:07:34;7.07;;;3.58;;
47531;SDS011;33273;52.254;7.988;2023-05-10T04:10:00;6.10;;;3.50;;
47531;SDS011;33273;52.254;7.988;2023-05-10T04:12:26;6.43;;;4.35;;
47531;SDS011;33273;52.254;7.988;2023-05-10T04:14:52;6.20;;;4.20;;
47531;SDS011;33273;52.254;7.988;2023-05-10T04:17:18;5.60;;;4.30;;
47531;SDS011;33273;52.254;7.988;2023-05-10T04:19:44;5.50;;;3.97;;
47531;SDS011;33273;52.254;7.988;2023-05-10T04:22:10;6.10;;;3.90;;
47531;SDS011;33273;52.254;7.988;2023-05-10T04:24:35;6.17;;;4.30;;
47531;SDS011;33273;52.254;7.988;2023-05-10T04:27:01;6.07;;;3.60;;
47531;SDS011;33273;52.254;7.988;2023-05-10T04:29:27;6.05;;;4.25;;
47531;SDS011;33273;52.254;7.988;2023-05-10T04:31:53;6.17;;;4.20;;
47531;SDS011;33273;52.254;7.988;2023-05-10T04:34:20;5.57;;;3.80;;
47531;SDS011;33273;52.254;7.988;2023-05-10T04:36:46;6.25;;;4.35;;
47531;SDS011;33273;52.254;7.988;2023-05-10T04:39:12;6.43;;;3.77;;
47531;SDS011;33273;52.254;7.988;2023-05-10T04:41:38;5.82;;;4.10;;
47531;SDS011;33273;52.254;7.988;2023-05-10T04:44:05;6.50;;;4.05;;
47531;SDS011;33273;52.254;7.988;2023-05-10T04:46:31;6.70;;;4.05;;
47531;SDS011;33273;52.254;7.988;2023-05-10T04:48:57;6.10;;;4.70;;
47531;SDS011;33273;52.254;7.988;2023-05-10T04:51:22;7.53;;;4.97;;
47531;SDS011;33273;52.254;7.988;2023-05-10T04:53:48;8.53;;;5.77;;
47531;SDS011;33273;52.254;7.988;2023-05-10T04:56:14;9.05;;;6.07;;
47531;SDS011;33273;52.254;7.988;2023-05-10T04:58:41;7.68;;;5.28;;
47531;SDS011;33273;52.254;7.988;2023-05-10T05:01:07;8.32;;;6.03;;
47531;SDS011;33273;52.254;7.988;2023-05-10T05:03:34;8.82;;;6.05;;
47531;SDS011;33273;52.254;7.988;2023-05-10T05:08:27;6.95;;;5.03;;
47531;SDS011;33273;52.254;7.988;2023-05-10T05:10:52;7.97;;;5.90;;
47531;SDS011;33273;52.254;7.988;2023-05-10T05:13:20;9.55;;;5.90;;
47531;SDS011;33273;52.254;7.988;2023-05-10T05:15:47;9.13;;;6.10;;
47531;SDS011;33273;52.254;7.988;2023-05-10T05:18:13;8.20;;;5.25;;
47531;SDS011;33273;52.254;7.988;2023-05-10T05:20:39;9.02;;;5.20;;
47531;SDS011;33273;52.254;7.988;2023-05-10T05:23:05;8.13;;;5.68;;
47531;SDS011;33273;52.254;7.988;2023-05-10T05:25:30;8.13;;;5.22;;
47531;SDS011;33273;52.254;7.988;2023-05-10T05:27:56;6.83;;;5.03;;
47531;SDS011;33273;52.254;7.988;2023-05-10T05:30:22;7.10;;;5.17;;
47531;SDS011;33273;52.254;7.988;2023-05-10T05:32:48;7.27;;;4.97;;
47531;SDS011;33273;52.254;7.988;2023-05-10T05:35:14;8.07;;;4.63;;
47531;SDS011;33273;52.254;7.988;2023-05-10T05:37:40;6.72;;;4.55;;
47531;SDS011;33273;52.254;7.988;2023-05-10T05:40:11;6.90;;;4.63;;
47531;SDS011;33273;52.254;7.988;2023-05-10T05:42:40;5.72;;;4.35;;
47531;SDS011;33273;52.254;7.988;2023-05-10T05:45:07;5.90;;;4.22;;
47531;SDS011;33273;52.254;7.988;2023-05-10T05:47:35;5.50;;;3.75;;
47531;SDS011;33273;52.254;7.988;2023-05-10T05:50:01;8.63;;;4.78;;
47531;SDS011;33273;52.254;7.988;2023-05-10T05:52:27;6.93;;;4.38;;
47531;SDS011;33273;52.254;7.988;2023-05-10T05:54:53;5.35;;;3.80;;
47531;SDS011;33273;52.254;7.988;2023-05-10T05:57:19;5.68;;;4.05;;
47531;SDS011;33273;52.254;7.988;2023-05-10T05:59:45;5.87;;;3.00;;
47531;SDS011;33273;52.254;7.988;2023-05-10T06:02:12;6.10;;;3.77;;
47531;SDS011;33273;52.254;7.988;2023-05-10T06:04:38;6.53;;;4.10;;
47531;SDS011;33273;52.254;7.988;2023-05-10T06:07:04;6.07;;;3.30;;
47531;SDS011;33273;52.254;7.988;2023-05-10T06:09:30;6.65;;;3.97;;
47531;SDS011;33273;52.254;7.988;2023-05-10T06:11:56;6.57;;;3.77;;
47531;SDS011;33273;52.254;7.988;2023-05-10T06:14:22;5.37;;;3.73;;
47531;SDS011;33273;52.254;7.988;2023-05-10T06:16:48;7.85;;;4.20;;
47531;SDS011;33273;52.254;7.988;2023-05-10T06:19:14;6.57;;;4.53;;
47531;SDS011;33273;52.254;7.988;2023-05-10T06:21:40;7.50;;;4.65;;
47531;SDS011;33273;52.254;7.988;2023-05-10T06:24:06;6.07;;;3.40;;
47531;SDS011;33273;52.254;7.988;2023-05-10T06:26:32;7.00;;;4.45;;
47531;SDS011;33273;52.254;7.988;2023-05-10T06:28:59;8.63;;;5.60;;
47531;SDS011;33273;52.254;7.988;2023-05-10T06:31:26;9.68;;;4.97;;
47531;SDS011;33273;52.254;7.988;2023-05-10T06:33:52;6.68;;;4.72;;
47531;SDS011;33273;52.254;7.988;2023-05-10T06:36:18;9.75;;;5.25;;
47531;SDS011;33273;52.254;7.988;2023-05-10T06:38:43;14.63;;;5.45;;
47531;SDS011;33273;52.254;7.988;2023-05-10T06:41:09;8.70;;;5.43;;
47531;SDS011;33273;52.254;7.988;2023-05-10T06:43:35;6.97;;;5.30;;
47531;SDS011;33273;52.254;7.988;2023-05-10T06:46:05;8.85;;;5.93;;
47531;SDS011;33273;52.254;7.988;2023-05-10T06:50:57;9.70;;;5.85;;
47531;SDS011;33273;52.254;7.988;2023-05-10T06:53:23;8.33;;;5.80;;
47531;SDS011;33273;52.254;7.988;2023-05-10T06:55:49;9.75;;;6.65;;
47531;SDS011;33273;52.254;7.988;2023-05-10T06:58:15;9.77;;;7.07;;
47531;SDS011;33273;52.254;7.988;2023-05-10T07:00:41;11.55;;;7.63;;
47531;SDS011;33273;52.254;7.988;2023-05-10T07:03:09;11.07;;;7.60;;
47531;SDS011;33273;52.254;7.988;2023-05-10T07:05:35;14.60;;;8.88;;
47531;SDS011;33273;52.254;7.988;2023-05-10T07:08:01;11.90;;;7.97;;
47531;SDS011;33273;52.254;7.988;2023-05-10T07:10:27;14.10;;;8.83;;
47531;SDS011;33273;52.254;7.988;2023-05-10T07:12:53;14.95;;;9.18;;
47531;SDS011;33273;52.254;7.988;2023-05-10T07:15:19;17.10;;;10.33;;
47531;SDS011;33273;52.254;7.988;2023-05-10T07:17:45;16.05;;;9.70;;
47531;SDS011;33273;52.254;7.988;2023-05-10T07:20:12;16.17;;;9.33;;
47531;SDS011;33273;52.254;7.988;2023-05-10T07:22:38;15.63;;;10.20;;
47531;SDS011;33273;52.254;7.988;2023-05-10T07:25:05;16.60;;;10.60;;
47531;SDS011;33273;52.254;7.988;2023-05-10T07:27:32;19.48;;;11.70;;
47531;SDS011;33273;52.254;7.988;2023-05-10T07:29:57;17.20;;;11.35;;
47531;SDS011;33273;52.254;7.988;2023-05-10T07:32:23;19.10;;;11.60;;
47531;SDS011;33273;52.254;7.988;2023-05-10T07:34:49;15.77;;;10.30;;
47531;SDS011;33273;52.254;7.988;2023-05-10T07:37:15;16.17;;;10.43;;
47531;SDS011;33273;52.254;7.988;2023-05-10T07:39:41;20.37;;;11.57;;
47531;SDS011;33273;52.254;7.988;2023-05-10T07:42:07;19.10;;;11.63;;
47531;SDS011;33273;52.254;7.988;2023-05-10T07:44:33;18.08;;;11.65;;
47531;SDS011;33273;52.254;7.988;2023-05-10T07:46:59;20.90;;;12.50;;
47531;SDS011;33273;52.254;7.988;2023-05-10T07:49:26;20.55;;;11.55;;
47531;SDS011;33273;52.254;7.988;2023-05-10T07:51:52;17.70;;;11.43;;
47531;SDS011;33273;52.254;7.988;2023-05-10T07:54:17;16.87;;;10.90;;
47531;SDS011;33273;52.254;7.988;2023-05-10T07:56:43;19.52;;;11.10;;
47531;SDS011;33273;52.254;7.988;2023-05-10T07:59:21;19.65;;;11.75;;
47531;SDS011;33273;52.254;7.988;2023-05-10T08:01:46;17.95;;;12.05;;
47531;SDS011;33273;52.254;7.988;2023-05-10T08:04:14;20.08;;;11.85;;
47531;SDS011;33273;52.254;7.988;2023-05-10T08:06:40;23.63;;;13.00;;
47531;SDS011;33273;52.254;7.988;2023-05-10T08:09:06;21.00;;;12.50;;
47531;SDS011;33273;52.254;7.988;2023-05-10T08:11:32;25.65;;;13.30;;
47531;SDS011;33273;52.254;7.988;2023-05-10T08:13:58;20.33;;;12.13;;
47531;SDS011;33273;52.254;7.988;2023-05-10T08:16:24;23.23;;;12.93;;
47531;SDS011;33273;52.254;7.988;2023-05-10T08:18:51;21.25;;;12.75;;
47531;SDS011;33273;52.254;7.988;2023-05-10T08:21:17;25.13;;;13.85;;
47531;SDS011;33273;52.254;7.988;2023-05-10T08:26:09;27.70;;;14.25;;
47531;SDS011;33273;52.254;7.988;2023-05-10T08:28:35;24.23;;;15.20;;
47531;SDS011;33273;52.254;7.988;2023-05-10T08:31:01;27.20;;;14.85;;
47531;SDS011;33273;52.254;7.988;2023-05-10T08:33:33;29.95;;;15.52;;
47531;SDS011;33273;52.254;7.988;2023-05-10T08:36:03;29.58;;;15.40;;
47531;SDS011;33273;52.254;7.988;2023-05-10T08:38:29;23.15;;;14.00;;
47531;SDS011;33273;52.254;7.988;2023-05-10T08:40:55;25.67;;;14.32;;
47531;SDS011;33273;52.254;7.988;2023-05-10T08:43:26;24.88;;;13.65;;
47531;SDS011;33273;52.254;7.988;2023-05-10T08:45:54;24.52;;;15.07;;
47531;SDS011;33273;52.254;7.988;2023-05-10T08:48:23;22.13;;;13.73;;
47531;SDS011;33273;52.254;7.988;2023-05-10T08:50:50;24.45;;;13.98;;
47531;SDS011;33273;52.254;7.988;2023-05-10T08:53:19;24.10;;;14.63;;
47531;SDS011;33273;52.254;7.988;2023-05-10T08:55:49;24.13;;;14.10;;
47531;SDS011;33273;52.254;7.988;2023-05-10T08:58:16;25.50;;;14.85;;
47531;SDS011;33273;52.254;7.988;2023-05-10T09:00:45;25.58;;;13.43;;
47531;SDS011;33273;52.254;7.988;2023-05-10T09:03:12;22.88;;;13.38;;
47531;SDS011;33273;52.254;7.988;2023-05-10T09:08:04;23.92;;;15.43;;
47531;SDS011;33273;52.254;7.988;2023-05-10T09:10:31;22.55;;;13.35;;
47531;SDS011;33273;52.254;7.988;2023-05-10T09:12:59;25.70;;;14.65;;
47531;SDS011;33273;52.254;7.988;2023-05-10T09:15:25;24.55;;;13.55;;
47531;SDS011;33273;52.254;7.988;2023-05-10T09:17:51;20.80;;;12.30;;
47531;SDS011;33273;52.254;7.988;2023-05-10T09:20:17;24.67;;;14.13;;
47531;SDS011;33273;52.254;7.988;2023-05-10T09:22:43;22.50;;;13.30;;
47531;SDS011;33273;52.254;7.988;2023-05-10T09:25:10;22.55;;;13.55;;
47531;SDS011;33273;52.254;7.988;2023-05-10T09:27:37;23.13;;;11.68;;
47531;SDS011;33273;52.254;7.988;2023-05-10T09:30:04;20.55;;;11.82;;
47531;SDS011;33273;52.254;7.988;2023-05-10T09:32:41;19.80;;;11.43;;
47531;SDS011;33273;52.254;7.988;2023-05-10T09:35:10;19.88;;;12.25;;
47531;SDS011;33273;52.254;7.988;2023-05-10T09:37:41;18.85;;;12.73;;
47531;SDS011;33273;52.254;7.988;2023-05-10T09:40:12;21.83;;;12.95;;
47531;SDS011;33273;52.254;7.988;2023-05-10T09:42:42;22.83;;;12.40;;
47531;SDS011;33273;52.254;7.988;2023-05-10T09:45:15;24.15;;;13.70;;
47531;SDS011;33273;52.254;7.988;2023-05-10T09:47:41;21.88;;;13.70;;
47531;SDS011;33273;52.254;7.988;2023-05-10T09:50:07;22.30;;;13.48;;
47531;SDS011;33273;52.254;7.988;2023-05-10T09:52:46;20.80;;;13.35;;
47531;SDS011;33273;52.254;7.988;2023-05-10T09:55:13;22.02;;;13.43;;
47531;SDS011;33273;52.254;7.988;2023-05-10T10:00:06;22.25;;;12.30;;
47531;SDS011;33273;52.254;7.988;2023-05-10T10:02:38;19.88;;;12.45;;
47531;SDS011;33273;52.254;7.988;2023-05-10T10:05:06;19.60;;;12.35;;
47531;SDS011;33273;52.254;7.988;2023-05-10T10:07:32;20.17;;;13.13;;
47531;SDS011;33273;52.254;7.988;2023-05-10T10:09:59;21.30;;;13.82;;
47531;SDS011;33273;52.254;7.988;2023-05-10T10:12:26;21.45;;;12.40;;
47531;SDS011;33273;52.254;7.988;2023-05-10T10:14:52;19.83;;;12.77;;
47531;SDS011;33273;52.254;7.988;2023-05-10T10:17:19;17.35;;;11.45;;
47531;SDS011;33273;52.254;7.988;2023-05-10T10:19:45;17.83;;;11.57;;
47531;SDS011;33273;52.254;7.988;2023-05-10T10:22:13;16.05;;;11.38;;
47531;SDS011;33273;52.254;7.988;2023-05-10T10:24:39;22.25;;;12.85;;
47531;SDS011;33273;52.254;7.988;2023-05-10T10:29:41;19.02;;;11.02;;
47531;SDS011;33273;52.254;7.988;2023-05-10T10:35:24;16.45;;;9.93;;
47531;SDS011;33273;52.254;7.988;2023-05-10T10:37:50;16.33;;;10.35;;
47531;SDS011;33273;52.254;7.988;2023-05-10T10:40:23;19.60;;;10.55;;
47531;SDS011;33273;52.254;7.988;2023-05-10T10:42:54;14.43;;;9.23;;
47531;SDS011;33273;52.254;7.988;2023-05-10T10:47:47;14.45;;;8.35;;
47531;SDS011;33273;52.254;7.988;2023-05-10T10:50:15;17.27;;;8.45;;
47531;SDS011;33273;52.254;7.988;2023-05-10T10:52:44;16.70;;;9.25;;
47531;SDS011;33273;52.254;7.988;2023-05-10T10:55:14;14.68;;;8.48;;
47531;SDS011;33273;52.254;7.988;2023-05-10T10:57:50;14.52;;;8.23;;
47531;SDS011;33273;52.254;7.988;2023-05-10T11:00:30;13.32;;;9.07;;
47531;SDS011;33273;52.254;7.988;2023-05-10T11:07:59;15.93;;;11.07;;
47531;SDS011;33273;52.254;7.988;2023-05-10T11:10:26;18.02;;;9.77;;
47531;SDS011;33273;52.254;7.988;2023-05-10T11:12:59;16.98;;;10.10;;
47531;SDS011;33273;52.254;7.988;2023-05-10T11:15:33;16.98;;;10.02;;
47531;SDS011;33273;52.254;7.988;2023-05-10T11:21:03;14.90;;;8.63;;
47531;SDS011;33273;52.254;7.988;2023-05-10T11:26:08;21.25;;;9.68;;
47531;SDS011;33273;52.254;7.988;2023-05-10T11:31:06;13.98;;;8.60;;
47531;SDS011;33273;52.254;7.988;2023-05-10T11:33:42;14.70;;;8.85;;
47531;SDS011;33273;52.254;7.988;2023-05-10T11:36:11;12.35;;;8.48;;
47531;SDS011;33273;52.254;7.988;2023-05-10T11:38:39;13.90;;;9.68;;
47531;SDS011;33273;52.254;7.988;2023-05-10T11:41:07;13.88;;;8.20;;
47531;SDS011;33273;52.254;7.988;2023-05-10T11:43:40;11.90;;;6.47;;
47531;SDS011;33273;52.254;7.988;2023-05-10T11:46:13;11.77;;;7.00;;
47531;SDS011;33273;52.254;7.988;2023-05-10T11:48:39;11.90;;;6.93;;
47531;SDS011;33273;52.254;7.988;2023-05-10T11:51:07;12.90;;;6.80;;
47531;SDS011;33273;52.254;7.988;2023-05-10T11:53:33;12.32;;;6.70;;
47531;SDS011;33273;52.254;7.988;2023-05-10T11:56:06;11.73;;;6.93;;
47531;SDS011;33273;52.254;7.988;2023-05-10T11:58:33;10.70;;;6.10;;
47531;SDS011;33273;52.254;7.988;2023-05-10T12:01:00;10.18;;;6.63;;
47531;SDS011;33273;52.254;7.988;2023-05-10T12:03:27;13.45;;;7.15;;
47531;SDS011;33273;52.254;7.988;2023-05-10T12:05:54;11.18;;;7.28;;
47531;SDS011;33273;52.254;7.988;2023-05-10T12:08:21;13.68;;;7.88;;
47531;SDS011;33273;52.254;7.988;2023-05-10T12:10:49;13.45;;;7.55;;
47531;SDS011;33273;52.254;7.988;2023-05-10T12:13:15;14.10;;;8.32;;
47531;SDS011;33273;52.254;7.988;2023-05-10T12:15:42;12.50;;;8.10;;
47531;SDS011;33273;52.254;7.988;2023-05-10T12:20:37;11.57;;;7.85;;
47531;SDS011;33273;52.254;7.988;2023-05-10T12:23:03;12.73;;;8.32;;
47531;SDS011;33273;52.254;7.988;2023-05-10T12:25:34;13.30;;;7.93;;
47531;SDS011;33273;52.254;7.988;2023-05-10T12:28:08;12.52;;;8.25;;
47531;SDS011;33273;52.254;7.988;2023-05-10T12:30:35;11.75;;;7.40;;
47531;SDS011;33273;52.254;7.988;2023-05-10T12:33:06;12.18;;;7.53;;
47531;SDS011;33273;52.254;7.988;2023-05-10T12:35:45;12.80;;;7.70;;
47531;SDS011;33273;52.254;7.988;2023-05-10T12:38:26;11.20;;;7.43;;
47531;SDS011;33273;52.254;7.988;2023-05-10T12:40:59;11.20;;;6.90;;
47531;SDS011;33273;52.254;7.988;2023-05-10T12:43:27;12.60;;;7.28;;
47531;SDS011;33273;52.254;7.988;2023-05-10T12:45:53;11.88;;;6.93;;
47531;SDS011;33273;52.254;7.988;2023-05-10T12:48:20;13.68;;;7.90;;
47531;SDS011;33273;52.254;7.988;2023-05-10T12:50:46;15.60;;;8.38;;
47531;SDS011;33273;52.254;7.988;2023-05-10T12:53:15;14.95;;;8.40;;
47531;SDS011;33273;52.254;7.988;2023-05-10T12:55:42;13.40;;;8.75;;
47531;SDS011;33273;52.254;7.988;2023-05-10T12:58:08;14.20;;;8.52;;
47531;SDS011;33273;52.254;7.988;2023-05-10T13:00:34;15.20;;;7.93;;
47531;SDS011;33273;52.254;7.988;2023-05-10T13:03:01;11.48;;;7.80;;
47531;SDS011;33273;52.254;7.988;2023-05-10T13:05:28;13.52;;;6.80;;
47531;SDS011;33273;52.254;7.988;2023-05-10T13:07:55;11.57;;;6.50;;
47531;SDS011;33273;52.254;7.988;2023-05-10T13:10:21;12.10;;;7.05;;
47531;SDS011;33273;52.254;7.988;2023-05-10T13:12:48;13.82;;;8.05;;
47531;SDS011;33273;52.254;7.988;2023-05-10T13:15:14;12.70;;;6.65;;
47531;SDS011;33273;52.254;7.988;2023-05-10T13:17:40;12.00;;;6.90;;
47531;SDS011;33273;52.254;7.988;2023-05-10T13:20:07;10.70;;;6.35;;
47531;SDS011;33273;52.254;7.988;2023-05-10T13:22:37;14.25;;;8.20;;
47531;SDS011;33273;52.254;7.988;2023-05-10T13:25:03;11.52;;;7.35;;
47531;SDS011;33273;52.254;7.988;2023-05-10T13:27:31;14.75;;;7.53;;
47531;SDS011;33273;52.254;7.988;2023-05-10T13:29:57;13.43;;;7.57;;
47531;SDS011;33273;52.254;7.988;2023-05-10T13:32:24;16.25;;;7.35;;
47531;SDS011;33273;52.254;7.988;2023-05-10T13:37:17;14.25;;;8.55;;
47531;SDS011;33273;52.254;7.988;2023-05-10T13:39:43;12.60;;;7.07;;
47531;SDS011;33273;52.254;7.988;2023-05-10T13:42:08;13.63;;;8.48;;
47531;SDS011;33273;52.254;7.988;2023-05-10T13:44:34;11.48;;;7.10;;
47531;SDS011;33273;52.254;7.988;2023-05-10T13:49:26;11.90;;;7.28;;
47531;SDS011;33273;52.254;7.988;2023-05-10T13:51:52;14.20;;;7.70;;
47531;SDS011;33273;52.254;7.988;2023-05-10T13:54:18;12.40;;;6.93;;
47531;SDS011;33273;52.254;7.988;2023-05-10T13:56:47;11.57;;;7.70;;
47531;SDS011;33273;52.254;7.988;2023-05-10T13:59:14;12.35;;;7.35;;
47531;SDS011;33273;52.254;7.988;2023-05-10T14:01:40;11.88;;;6.15;;
47531;SDS011;33273;52.254;7.988;2023-05-10T14:04:07;12.57;;;6.90;;
47531;SDS011;33273;52.254;7.988;2023-05-10T14:06:38;12.45;;;7.20;;
47531;SDS011;33273;52.254;7.988;2023-05-10T14:09:04;15.40;;;7.95;;
47531;SDS011;33273;52.254;7.988;2023-05-10T14:11:30;11.63;;;7.40;;
47531;SDS011;33273;52.254;7.988;2023-05-10T14:13:56;11.95;;;7.78;;
47531;SDS011;33273;52.254;7.988;2023-05-10T14:16:21;13.43;;;8.73;;
47531;SDS011;33273;52.254;7.988;2023-05-10T14:18:47;12.35;;;7.70;;
47531;SDS011;33273;52.254;7.988;2023-05-10T14:21:14;12.45;;;7.80;;
47531;SDS011;33273;52.254;7.988;2023-05-10T14:23:40;11.23;;;6.72;;
47531;SDS011;33273;52.254;7.988;2023-05-10T14:26:06;12.02;;;7.07;;
47531;SDS011;33273;52.254;7.988;2023-05-10T14:28:33;12.10;;;7.63;;
47531;SDS011;33273;52.254;7.988;2023-05-10T14:30:59;11.60;;;7.00;;
47531;SDS011;33273;52.254;7.988;2023-05-10T14:33:25;13.85;;;7.55;;
47531;SDS011;33273;52.254;7.988;2023-05-10T14:35:51;12.75;;;7.20;;
47531;SDS011;33273;52.254;7.988;2023-05-10T14:38:17;12.60;;;7.50;;
47531;SDS011;33273;52.254;7.988;2023-05-10T14:40:43;12.65;;;7.13;;
47531;SDS011;33273;52.254;7.988;2023-05-10T14:43:09;13.10;;;7.95;;
47531;SDS011;33273;52.254;7.988;2023-05-10T14:45:35;12.40;;;7.25;;
47531;SDS011;33273;52.254;7.988;2023-05-10T14:48:00;9.73;;;6.13;;
47531;SDS011;33273;52.254;7.988;2023-05-10T14:50:29;15.98;;;7.28;;
47531;SDS011;33273;52.254;7.988;2023-05-10T14:52:57;14.38;;;7.40;;
47531;SDS011;33273;52.254;7.988;2023-05-10T14:55:24;12.18;;;6.50;;
47531;SDS011;33273;52.254;7.988;2023-05-10T14:57:50;13.80;;;7.82;;
47531;SDS011;33273;52.254;7.988;2023-05-10T15:00:16;11.38;;;7.07;;
47531;SDS011;33273;52.254;7.988;2023-05-10T15:02:45;11.05;;;6.57;;
47531;SDS011;33273;52.254;7.988;2023-05-10T15:05:12;9.73;;;6.22;;
47531;SDS011;33273;52.254;7.988;2023-05-10T15:07:38;9.13;;;5.95;;
47531;SDS011;33273;52.254;7.988;2023-05-10T15:10:04;11.13;;;6.15;;
47531;SDS011;33273;52.254;7.988;2023-05-10T15:12:31;10.60;;;6.03;;
47531;SDS011;33273;52.254;7.988;2023-05-10T15:14:57;8.82;;;6.70;;
47531;SDS011;33273;52.254;7.988;2023-05-10T15:17:22;8.35;;;5.20;;
47531;SDS011;33273;52.254;7.988;2023-05-10T15:19:49;11.40;;;5.15;;
47531;SDS011;33273;52.254;7.988;2023-05-10T15:22:15;7.85;;;5.13;;
47531;SDS011;33273;52.254;7.988;2023-05-10T15:24:41;10.73;;;5.30;;
47531;SDS011;33273;52.254;7.988;2023-05-10T15:27:08;10.95;;;6.25;;
47531;SDS011;33273;52.254;7.988;2023-05-10T15:29:34;9.25;;;6.03;;
47531;SDS011;33273;52.254;7.988;2023-05-10T15:34:29;9.05;;;5.50;;
47531;SDS011;33273;52.254;7.988;2023-05-10T15:36:56;7.90;;;4.93;;
47531;SDS011;33273;52.254;7.988;2023-05-10T15:39:22;8.38;;;5.22;;
47531;SDS011;33273;52.254;7.988;2023-05-10T15:41:47;8.43;;;4.70;;
47531;SDS011;33273;52.254;7.988;2023-05-10T15:44:13;8.15;;;5.28;;